Forside
METAR-TAF:

METAR-TAF

Lufthavne :

Bornholms Lufthavn

Rønne, Danmark

Breddekreds: 55-04N, længdekreds: 014-45E, højde: 16 m

Aktuelle vejr

Denne rapport blev lavet for 25 minutter siden, kl. 23:50 UTC
Vind 6 kt fra vest
Temperatur 3°C
Fugtighed 100%
Tryk 1027 hPa
Sigt: 6000 m

METAR: EKRN 222350Z AUTO 27006KT 6000 OVC002/// 03/03 Q1027

Tid: 01:15 (00:15 UTC)

Vejrudsigter

Denne rapport blev lavet for 13 timer og 10 minutter siden, kl. 11:05 UTC
Foreløbig gælder fra 22 på 12 UTC til 22 på 16 UTC
Vind 6 kt fra nordnordvest
Sigt 10 km eller mere
ingen skyer under 1500m og ingen cumulonimbus

TAF: EKRN 221105Z 2212/2216 34006KT CAVOK

Vejrobservationer og prognoser fra mere end 4000 lufthavne (METAR og TAF).

De gule og røde prikker repræsenterer de meteorologiske stationer.

Flyt musen over at se navnet på stationen.

Så klik over at se vejr observationer og prognoser.

At skifte det kort: Klik på de grønne knapper med et sort kors for at zoome ind; på den grønne knap med en bindestreg for at zoome ud; eller på de grønne pile for tilstødende kort.


METAR-TAF: